Henderson, Nevada Weather observations

Data are for observation ending at time listed.
 Day   Time    Ave.   Ave.  Ave.  Vector   Max.   Stn.    Total    Solar   Ave.  
  of    of     Air    Rel.  Wind   Wind    Wind   Baro.  Precip.   Rad.    Soil  
Year   Day     Temp.  Hum.  Speed  Dir.    Gust   Pres.                    Temp. 
2015   (PST)    F      %     mph   deg.    mph     mb.     in.     W/m2     F   
------------------------------------------------------------------------------
 114   18:40   72.2    23    7.5   206     18.3   929.6    0.00       0    72.2
 114   18:50   72.0    24    8.9   194     18.9   929.8    0.00       0    71.9
 114   19:00   71.5    25    7.8   203     20.0   929.9    0.00       0    71.6
 114   19:10   70.9    25    8.5   188     18.5   929.9    0.00       0    70.9
 114   19:20   70.3    25    8.2   193     15.0   930.0    0.00       0    70.3
 114   19:30   69.7    27    9.8   193     18.0   930.1    0.00       0    69.7
 114   19:40   69.4    28    5.8   200     14.0   930.3    0.00       0    69.3
 114   19:50   69.2    28    5.4   202     14.5   930.5    0.00       0    68.8
 114   20:00   68.8    29    5.3   213     13.7   930.6    0.00       0    68.4
 114   20:10   68.0    31    4.9   206     12.0   930.6    0.00       0    67.8
 114   20:20   67.4    31    6.0   190     14.0   930.7    0.00       0    67.1
 114   20:30   67.0    31    4.1   180     10.4   930.8    0.00       0    66.5
 114   20:40   66.6    32    4.4   162     11.7   930.9    0.00       0    65.9
 114   20:50   66.3    33    4.3   184     11.8   931.0    0.00       0    65.5
 114   21:00   66.0    33    2.2   155      5.8   931.2    0.00       0    64.9
 114   21:10   65.6    34    2.9   167      7.5   931.3    0.00       0    64.4
 114   21:20   65.3    35    2.7   202      6.8   931.5    0.00       0    63.8
 114   21:30   65.0    36    2.4   202      8.3   931.6    0.00       0    63.2
 114   21:40   64.7    37    3.4   172      8.0   931.5    0.00       0    62.7
 114   21:50   64.4    37    2.8   174      7.8   931.4    0.00       0    62.4
 114   22:00   64.0    38    2.6   150      6.5   931.3    0.00       0    62.0
 114   22:10   63.9    38    3.0   157      6.7   931.2    0.00       0    61.7
 114   22:20   63.8    38    3.7   194      7.7   931.2    0.00       0    61.5
 114   22:30   63.5    38    4.4   201      9.6   931.1    0.00       0    61.2
 114   22:40   63.3    38    5.0   184      9.9   931.1    0.00       0    61.0
 114   22:50   62.9    39    2.5   149      6.6   931.1    0.00       0    60.8
 114   23:00   63.0    39    2.5   122      4.4   931.2    0.00       0    60.5
 114   23:10   62.8    40    2.6   135      6.8   931.1    0.00       0    60.3
 114   23:20   62.5    40    2.8   143      5.7   931.0    0.00       0    60.1
 114   23:30   62.6    40    2.9   122      5.3   931.0    0.00       0    59.9
 114   23:40   62.4    39    2.2   116      4.3   931.1    0.00       0    59.8
 114   23:50   62.2    39    3.6   103      5.2   931.2    0.00       0    59.5
 115    0:00   61.9    39    3.3   107      5.6   931.3    0.00       0    59.4
 115    0:10   61.8    40    2.7   107      5.4   931.4    0.00       0    59.1
 115    0:20   61.5    40    2.2   115      4.3   931.4    0.00       0    58.8
 115    0:30   61.3    41    2.0   116      4.0   931.3    0.00       0    58.6
 115    0:40   60.5    42    1.6   136      3.1   931.3    0.00       0    58.2
 115    0:50   59.8    44    1.5   128      2.6   931.2    0.00       0    57.7
 115    1:00   59.7    44    1.4   130      2.8   931.1    0.00       0    57.1
 115    1:10   59.6    44    1.4   113      4.3   931.0    0.00       0    56.5
 115    1:20   60.5    42    4.0   106      6.5   931.0    0.00       0    56.5
 115    1:30   60.7    42    4.4   105      7.5   930.8    0.00       0    57.1
 115    1:40   60.3    43    1.6   134      5.3   931.0    0.00       0    57.1
 115    1:50   60.1    43    2.0   141      5.3   931.0    0.00       0    56.9
 115    2:00   59.8    44    1.9   162      6.8   931.0    0.00       0    56.8
 115    2:10   59.2    45    1.9   148      4.8   931.0    0.00       0    56.5
 115    2:20   58.9    46    2.2   143      5.0   930.9    0.00       0    56.3
 115    2:30   58.7    46    2.8   141      6.0   930.9    0.00       0    56.3
 115    2:40   58.5    46    2.4   143      6.4   930.9    0.00       0    56.3
 115    2:50   58.6    46    3.3   108      6.2   931.0    0.00       0    56.1
 115    3:00   59.2    45    3.9   108      6.3   931.0    0.00       0    56.3
 115    3:10   58.8    46    1.2   143      4.4   931.1    0.00       0    56.2
 115    3:20   58.0    47    0.7   181      3.8   931.2    0.00       0    55.6
 115    3:30   58.1    47    1.3   130      3.9   931.3    0.00       0    55.1
 115    3:40   57.9    46    1.5   145      3.8   931.3    0.00       0    54.8
 115    3:50   58.0    46    1.4   126      2.9   931.2    0.00       0    54.8
 115    4:00   58.1    46    1.6   132      3.9   931.0    0.00       0    54.8
 115    4:10   57.8    46    1.7   150      4.3   930.8    0.00       0    54.6
 115    4:20   57.3    47    1.7   158      4.3   930.8    0.00       0    54.5
 115    4:30   57.3    47    2.1   116      3.7   930.9    0.00       0    54.4
 115    4:40   57.1    48    1.4   141      3.2   930.9    0.00       0    54.3
 115    4:50   57.0    47    1.9   156      4.5   931.0    0.00       1    54.0
 115    5:00   57.2    47    1.7   135      4.7   931.1    0.00       7    54.1
 115    5:10   56.9    48    2.1   133      6.4   931.2    0.00      16    54.2
 115    5:20   56.6    49    1.9   145      5.7   931.3    0.00      30    54.3
 115    5:30   56.7    49    1.8   137      4.2   931.2    0.00      48    54.4
 115    5:40   57.3    48    2.4   155      5.1   931.1    0.00      59    54.7
 115    5:50   58.0    46    2.7   146      7.6   931.0    0.00      62    55.4
 115    6:00   58.2    46    1.9   145      5.1   931.0    0.00      72    55.8
 115    6:10   58.4    46    1.8   148      6.6   931.2    0.00      77    56.2
 115    6:20   58.3    46    2.0   144      5.0   931.3    0.00      80    56.5
 115    6:30   58.5    46    2.5   129      6.3   931.2    0.00      83    56.9
 115    6:40   58.6    46    3.8   116      8.4   931.2    0.00      97    57.4
 115    6:50   58.8    45    4.1   113      8.3   931.3    0.00     117    57.9
 115    7:00   59.3    44    4.1   114      8.3   931.3    0.00     136    58.5
 115    7:10   59.8    43    4.7   112      8.0   931.3    0.00     206    59.2
 115    7:20   60.4    42    4.5   116      9.2   931.3    0.00     204    60.1
 115    7:30   60.5    42    4.3   114      8.5   931.3    0.00     272    60.9
 115    7:40   61.5    40    3.8   118      7.8   931.3    0.00     401    62.3
 115    7:50   62.7    38    3.6   114      8.0   931.1    0.00     446    64.6
 115    8:00   62.7    38    2.2   154      4.8   931.1    0.00     229    65.7
 115    8:10   62.9    38    2.7   123      6.1   931.1    0.00     402    65.7
 115    8:20   63.9    36    2.9   133      5.6   931.1    0.00     465    67.2
 115    8:30   65.2    34    3.4   129      8.2   930.9    0.00     691    69.2
 115    8:40   65.7    33    3.7   126     10.4   930.8    0.00     514    71.1
 115    8:50   65.2    33    4.1   139      9.1   930.7    0.00     387    70.8
 115    9:00   64.9    33    3.0   171     10.0   930.9    0.00     306    70.1
 115    9:10   64.8    32    4.3   173     11.5   931.0    0.00     324    69.5
 115    9:20   65.0    31    3.7   128     10.6   930.9    0.00     385    69.2
 115    9:30   65.6    30    3.2   150      9.3   930.8    0.00     338    69.3
 115    9:40   65.5    30    3.6   123      6.9   930.7    0.00     276    69.1
 115    9:50   65.2    29    4.3   139     11.0   930.5    0.00     288    68.8
 115   10:00   65.4    29    3.6   148      8.6   930.5    0.00     298    68.6
 115   10:10   65.6    28    4.2   165     10.7   930.4    0.00     389    68.7
 115   10:20   66.0    28    4.3   184     10.5   930.3    0.00     400    69.3
 115   10:30   65.7    28    3.3   138      9.1   930.3    0.00     334    69.5
 115   10:40   65.4    28    4.9   185     11.0   930.4    0.00     250    69.3
 115   10:50   64.6    28    4.8   229     18.4   930.4    0.00     235    68.8
 115   11:00   64.1    28    5.3   227     14.4   930.3    0.00     313    68.1
 115   11:10   64.5    28    5.5   215     13.2   930.2    0.00     362    67.8
 115   11:20   64.8    27    4.6   226     12.6   930.2    0.00     284    67.7
 115   11:30   64.3    27    5.9   207     17.2   930.0    0.00     345    67.5
 115   11:40   65.1    27    6.0   198     17.5   929.8    0.00     472    67.6
 115   11:50   65.2    27    7.6   194     19.8   929.6    0.00     501    68.2
 115   12:00   66.1    27    6.5   214     16.1   929.5    0.00     608    68.8
 115   12:10   66.5    27    6.5   193     14.8   929.5    0.00     753    69.9
 115   12:20   67.6    26    7.7   179     17.3   929.4    0.00    1005    71.7
 115   12:30   67.1    27    7.5   159     19.8   929.2    0.00     638    72.9
 115   12:40   66.5    27    7.8   177     17.2   929.1    0.00     551    72.2
 115   12:50   66.5    27    7.8   194     19.1   928.9    0.00     324    71.4
 115   13:00   66.9    27    4.4   200     13.8   928.8    0.00     312    70.7
 115   13:10   67.0    28    5.6   183     16.4   928.7    0.00     340    70.5
 115   13:20   66.8    28    6.7   165     18.6   928.5    0.00     327    70.4
 115   13:30   67.9    27    7.8   162     18.2   928.3    0.00     788    70.9
 115   13:40   70.5    25    5.2   181     13.2   928.3    0.00     971    73.7
 115   13:50   71.1    25    4.5   216     14.3   928.2    0.00     646    75.5
 115   14:00   70.2    25    6.0   202     17.3   928.1    0.00     646    75.6
 115   14:10   71.0    25    7.1   208     22.4   927.9    0.00    1031    76.5
 115   14:20   70.0    26    6.4   195     17.2   927.7    0.00     232    76.6
 115   14:30   68.8    27    6.4   195     16.8   927.5    0.00     216    74.6
 115   14:40   69.0    27    3.9   221     11.4   927.2    0.00     212    73.4
 115   14:50   69.3    27    7.0   190     16.0   927.0    0.00     333    72.8
 115   15:00   69.9    27    9.1   190     20.6   926.9    0.00     570    72.9
 115   15:10   69.5    28    6.3   214     19.1   926.9    0.00     191    73.2
 115   15:20   68.6    29    6.8   193     23.2   926.8    0.00     169    72.4
 115   15:30   68.1    30    6.7   183     15.3   926.8    0.00     172    71.5
 115   15:40   68.1    31    6.7   183     17.8   926.9    0.00     112    70.9
 115   15:50   67.6    32    8.6   191     18.5   927.1    0.00      69    70.2
 115   16:00   66.7    33    7.0   195     19.0   927.1    0.00      39    69.3
 115   16:10   66.4    34    5.4   231     15.3   927.3    0.00      17    68.5
 115   16:20   65.0    45    5.5   254     13.2   927.3    0.00      10    67.2
 115   16:30   62.9    52    9.0   261     18.9   927.5    0.00       7    64.4
 115   16:40   61.2    54    9.5   277     18.6   927.8    0.00       7    61.7
 115   16:50   58.5    58   14.1   298     24.5   928.2    0.00       7    59.5
 115   17:00   55.0    73   12.4   298     22.4   928.5    0.00       7    57.7
 115   17:10   53.9    80   12.6   298     23.2   928.6    0.02       7    55.8
 115   17:20   53.0    83   11.4   290     22.1   928.9    0.01       7    54.5
 115   17:30   52.8    85   11.7   287     21.8   929.2    0.02       7    53.6
 115   17:40   52.5    84    9.6   283     20.1   929.5    0.02       7    52.8
 115   17:50   52.2    80   11.1   285     20.2   929.6    0.03       4    52.2
 115   18:00   52.1    77   10.3   282     20.2   930.0    0.01       0    51.3
 115   18:10   51.9    73   11.4   277     18.6   930.0    0.04       0    50.5
 115   18:20   51.6    73    9.3   279     21.9   929.6    0.03       0    49.8
 115   18:30   51.5    75    5.9   286     11.2   929.6    0.01       0    49.4

Return to Henderson, Nevada graphs page.


Western Regional Climate Center,wrcc@dri.edu